createdAt,value
2023-03-26T00:02:42.681Z,13.48
2023-03-26T00:07:44.740Z,9.63
2023-03-26T00:12:47.213Z,8.60
2023-03-26T00:17:49.480Z,9.18
2023-03-26T00:22:51.700Z,11.77
2023-03-26T00:27:54.165Z,26.52
2023-03-26T00:32:55.990Z,8.82
2023-03-26T00:37:58.157Z,10.07
2023-03-26T00:42:59.962Z,16.85
2023-03-26T00:48:02.839Z,11.65
2023-03-26T00:53:05.308Z,11.88
2023-03-26T00:58:07.854Z,14.68
2023-03-26T01:03:26.621Z,13.82
2023-03-26T01:08:39.579Z,9.70
2023-03-26T01:13:54.304Z,15.27
2023-03-26T01:18:56.477Z,21.20
2023-03-26T01:24:02.259Z,12.38
2023-03-26T01:29:05.759Z,13.55
2023-03-26T01:34:18.621Z,10.32
2023-03-26T01:39:38.219Z,9.93
2023-03-26T01:44:55.371Z,10.05
2023-03-26T01:49:57.657Z,8.25
2023-03-26T01:54:59.970Z,7.43
2023-03-26T02:00:01.789Z,9.23
2023-03-26T02:05:20.686Z,10.93
2023-03-26T02:10:29.636Z,8.65
2023-03-26T02:15:31.553Z,9.20
2023-03-26T02:20:33.570Z,17.02
2023-03-26T02:25:35.297Z,8.48
2023-03-26T02:30:37.428Z,19.27
2023-03-26T02:35:39.307Z,12.73
2023-03-26T02:40:42.099Z,13.23
2023-03-26T02:45:44.271Z,11.50
2023-03-26T02:51:14.287Z,12.40
2023-03-26T02:56:28.930Z,14.65
2023-03-26T03:01:58.133Z,9.30
2023-03-26T03:06:59.817Z,5.90
2023-03-26T03:12:02.190Z,9.07
2023-03-26T03:17:03.987Z,7.63
2023-03-26T03:22:06.094Z,7.00
2023-03-26T03:27:10.127Z,12.45
2023-03-26T03:32:16.974Z,15.38
2023-03-26T03:37:21.990Z,8.50
2023-03-26T03:42:27.724Z,9.77
2023-03-26T03:47:32.581Z,8.85
2023-03-26T03:52:34.809Z,10.32
2023-03-26T03:57:36.642Z,14.63
2023-03-26T04:02:43.459Z,11.80
2023-03-26T04:07:45.902Z,10.35
2023-03-26T04:13:07.877Z,12.40
2023-03-26T04:18:27.891Z,13.18
2023-03-26T04:23:32.462Z,5.65
2023-03-26T04:28:50.379Z,8.40
2023-03-26T04:34:04.078Z,7.57
2023-03-26T04:39:07.073Z,10.85
2023-03-26T04:44:27.729Z,11.25
2023-03-26T04:49:35.857Z,7.97
2023-03-26T04:54:38.777Z,12.82
2023-03-26T04:59:45.678Z,13.05
2023-03-26T05:04:49.257Z,12.52
2023-03-26T05:09:52.395Z,9.15
2023-03-26T05:15:17.685Z,19.42
2023-03-26T05:20:41.090Z,9.15
2023-03-26T05:25:45.113Z,10.15
2023-03-26T05:30:53.111Z,10.38
2023-03-26T05:36:03.223Z,12.85
2023-03-26T05:41:09.557Z,11.32
2023-03-26T05:46:15.974Z,11.85
2023-03-26T05:51:18.572Z,16.38
2023-03-26T05:56:32.955Z,22.52
2023-03-26T06:01:53.175Z,15.63
2023-03-26T06:07:14.162Z,4.30
2023-03-26T06:12:20.402Z,9.85
2023-03-26T06:17:22.715Z,13.77
2023-03-26T06:22:49.018Z,15.57
2023-03-26T06:27:55.626Z,13.57
2023-03-26T06:33:09.564Z,12.63
2023-03-26T06:38:18.529Z,12.43
2023-03-26T06:43:20.876Z,12.40
2023-03-26T06:48:42.937Z,12.32
2023-03-26T06:54:03.541Z,10.35
2023-03-26T06:59:34.672Z,15.70
2023-03-26T07:05:03.466Z,9.63
2023-03-26T07:10:23.958Z,13.27
2023-03-26T07:15:46.153Z,12.50
2023-03-26T07:20:57.354Z,11.10
2023-03-26T07:26:23.158Z,11.13
2023-03-26T07:31:59.503Z,13.35
2023-03-26T07:37:32.194Z,15.15
2023-03-26T07:43:30.754Z,13.23
2023-03-26T07:48:46.047Z,10.82
2023-03-26T07:54:07.268Z,10.75
2023-03-26T07:59:53.082Z,19.50
2023-03-26T08:05:31.145Z,12.77
2023-03-26T08:11:31.422Z,14.35
2023-03-26T08:17:31.260Z,18.05
2023-03-26T08:22:42.030Z,7.78
2023-03-26T08:27:55.645Z,8.90
2023-03-26T08:33:12.925Z,10.73
2023-03-26T08:38:16.977Z,14.18
2023-03-26T08:43:46.638Z,16.35
2023-03-26T08:49:29.764Z,14.70
2023-03-26T08:54:47.220Z,14.20
2023-03-26T09:00:16.720Z,14.50
2023-03-26T09:05:43.175Z,9.95
2023-03-26T09:10:52.463Z,7.50
2023-03-26T09:16:29.466Z,10.27
2023-03-26T09:21:43.230Z,9.40
2023-03-26T09:27:08.690Z,4.55
2023-03-26T09:32:41.516Z,6.85
2023-03-26T09:37:58.631Z,7.63
2023-03-26T09:43:32.966Z,6.00
2023-03-26T09:48:42.877Z,7.05
2023-03-26T09:54:09.444Z,9.20
2023-03-26T09:59:44.863Z,6.73
2023-03-26T10:05:17.361Z,8.15
2023-03-26T10:11:16.506Z,7.43
2023-03-26T10:17:11.778Z,5.93
2023-03-26T10:22:44.227Z,5.28
2023-03-26T10:28:09.734Z,4.93
2023-03-26T10:33:54.509Z,3.55
2023-03-26T10:39:35.878Z,4.00
2023-03-26T10:44:56.001Z,5.68
2023-03-26T10:50:25.281Z,2.95
2023-03-26T10:55:40.806Z,4.40
2023-03-26T11:00:53.431Z,6.45
2023-03-26T11:06:23.365Z,7.45
2023-03-26T11:11:40.298Z,5.47
2023-03-26T11:22:04.950Z,4.97
2023-03-26T11:27:49.037Z,6.20
2023-03-26T11:33:16.847Z,4.93
2023-03-26T11:38:28.607Z,4.88
2023-03-26T11:43:35.384Z,7.60
2023-03-26T11:48:40.339Z,5.65
2023-03-26T11:53:41.871Z,6.55
2023-03-26T11:58:51.001Z,4.80
2023-03-26T12:04:11.180Z,2.67
2023-03-26T12:09:20.043Z,0.50
2023-03-26T12:14:27.098Z,0.10
2023-03-26T12:19:35.295Z,0.47
2023-03-26T12:24:36.990Z,0.43
2023-03-26T12:29:38.532Z,0.57
2023-03-26T12:34:42.252Z,0.47
2023-03-26T12:40:08.609Z,0.57
2023-03-26T12:45:06.735Z,1.13
2023-03-26T12:50:13.716Z,3.17
2023-03-26T12:55:35.777Z,0.82
2023-03-26T13:01:10.825Z,1.08
2023-03-26T13:07:04.992Z,0.50
2023-03-26T13:12:34.170Z,2.42
2023-03-26T13:18:07.058Z,2.17
2023-03-26T13:23:22.473Z,1.00
2023-03-26T13:29:02.723Z,5.57
2023-03-26T13:34:25.833Z,6.40
2023-03-26T13:39:51.843Z,2.75
2023-03-26T13:45:18.273Z,3.03
2023-03-26T13:50:25.656Z,1.67
2023-03-26T13:55:45.852Z,2.53
2023-03-26T14:00:55.012Z,8.10
2023-03-26T14:06:04.896Z,4.95
2023-03-26T14:11:22.165Z,6.65
2023-03-26T14:16:30.417Z,4.50
2023-03-26T14:21:56.611Z,4.63
2023-03-26T14:27:01.246Z,13.30
2023-03-26T14:32:14.710Z,16.27
2023-03-26T14:38:13.654Z,5.65
2023-03-26T14:43:23.909Z,20.38
2023-03-26T14:48:41.101Z,15.93
2023-03-26T14:53:48.308Z,8.93
2023-03-26T14:59:20.982Z,15.15
2023-03-26T15:04:56.527Z,8.27
2023-03-26T15:10:14.193Z,8.95
2023-03-26T15:15:53.996Z,7.63
2023-03-26T15:21:15.261Z,3.30
2023-03-26T15:26:28.996Z,2.58
2023-03-26T15:32:04.787Z,9.75
2023-03-26T15:37:28.731Z,3.92
2023-03-26T15:42:43.565Z,6.97
2023-03-26T15:48:11.361Z,2.85
2023-03-26T15:53:19.594Z,2.20
2023-03-26T15:58:49.841Z,1.70
2023-03-26T16:03:57.251Z,2.47
2023-03-26T16:09:25.316Z,0.45
2023-03-26T16:14:36.179Z,1.13
2023-03-26T16:19:37.909Z,5.60
2023-03-26T16:25:26.903Z,3.25
2023-03-26T16:30:32.556Z,2.80
2023-03-26T16:35:52.596Z,3.57
2023-03-26T16:41:00.139Z,7.05
2023-03-26T16:46:27.969Z,10.27
2023-03-26T16:51:42.760Z,6.72
2023-03-26T16:57:05.607Z,13.90
2023-03-26T17:02:31.908Z,13.35
2023-03-26T17:07:47.737Z,8.00
2023-03-26T17:13:01.206Z,8.52
2023-03-26T17:18:21.304Z,4.93
2023-03-26T17:24:01.912Z,7.25
2023-03-26T17:29:18.835Z,7.20
2023-03-26T17:34:38.469Z,4.95
2023-03-26T17:39:39.960Z,3.83
2023-03-26T17:44:45.825Z,3.65
2023-03-26T17:49:51.169Z,6.07
2023-03-26T17:54:55.943Z,4.32
2023-03-26T17:59:59.527Z,5.22
2023-03-26T18:05:03.485Z,6.07
2023-03-26T18:10:35.712Z,5.32
2023-03-26T18:15:57.309Z,6.40
2023-03-26T18:21:02.455Z,5.63
2023-03-26T18:26:15.805Z,7.77
2023-03-26T18:31:25.532Z,8.90
2023-03-26T18:36:27.718Z,11.90
2023-03-26T18:41:34.678Z,13.15
2023-03-26T18:46:36.585Z,18.85
2023-03-26T18:51:46.384Z,16.98
2023-03-26T18:56:55.918Z,13.25
2023-03-26T19:02:03.640Z,18.38
2023-03-26T19:07:11.630Z,18.67
2023-03-26T19:12:20.252Z,17.38
2023-03-26T19:17:23.728Z,12.38
2023-03-26T19:22:26.196Z,11.82
2023-03-26T19:27:28.222Z,11.45
2023-03-26T19:32:31.796Z,13.10
2023-03-26T19:37:33.442Z,15.75
2023-03-26T19:42:43.899Z,15.43
2023-03-26T19:47:54.735Z,12.00
2023-03-26T19:53:16.149Z,13.48
2023-03-26T19:58:18.866Z,11.98
2023-03-26T20:03:29.318Z,7.03
2023-03-26T20:08:31.069Z,12.75
2023-03-26T20:13:32.773Z,10.98
2023-03-26T20:18:34.982Z,6.28
2023-03-26T20:23:36.501Z,10.52
2023-03-26T20:28:47.322Z,11.43
2023-03-26T20:33:51.146Z,10.48
2023-03-26T20:38:52.908Z,13.45
2023-03-26T20:43:54.830Z,10.25
2023-03-26T20:48:56.948Z,11.90
2023-03-26T20:53:58.685Z,6.88
2023-03-26T20:59:10.635Z,14.48
2023-03-26T21:04:14.139Z,13.00
2023-03-26T21:09:19.526Z,12.40
2023-03-26T21:14:27.623Z,12.18
2023-03-26T21:19:29.886Z,14.63
2023-03-26T21:24:58.363Z,7.47
2023-03-26T21:30:00.313Z,11.23
2023-03-26T21:35:02.237Z,11.85
2023-03-26T21:40:04.553Z,9.63
2023-03-26T21:45:07.640Z,8.05
2023-03-26T21:50:12.523Z,7.95
2023-03-26T21:55:20.071Z,12.95
2023-03-26T22:00:30.781Z,9.48
2023-03-26T22:10:43.955Z,11.70
2023-03-26T22:15:45.683Z,14.13
2023-03-26T22:20:48.542Z,9.43
2023-03-26T22:25:50.190Z,9.50
2023-03-26T22:30:51.933Z,9.35
2023-03-26T22:35:55.560Z,18.33
2023-03-26T22:40:57.995Z,9.95
2023-03-26T22:45:59.772Z,5.00
2023-03-26T22:51:05.154Z,8.40
2023-03-26T22:56:07.389Z,10.63
2023-03-26T23:01:14.086Z,3.30
2023-03-26T23:11:19.758Z,11.82
2023-03-26T23:16:21.438Z,11.85
2023-03-26T23:21:23.196Z,6.65
2023-03-26T23:26:24.764Z,7.13
2023-03-26T23:31:26.832Z,7.65
2023-03-26T23:36:28.373Z,10.23
2023-03-26T23:41:29.932Z,8.25
2023-03-26T23:46:31.545Z,9.25
2023-03-26T23:51:33.524Z,8.63
2023-03-26T23:56:35.097Z,15.73
